createdAt,value
2019-01-19T00:00:47.708Z,-3.03
2019-01-19T00:01:55.762Z,-3.03
2019-01-19T00:03:03.804Z,-3.14
2019-01-19T00:04:11.875Z,-3.03
2019-01-19T00:05:19.915Z,-3.09
2019-01-19T00:06:27.945Z,-3.03
2019-01-19T00:07:36.011Z,-3.02
2019-01-19T00:08:44.079Z,-3.05
2019-01-19T00:09:52.123Z,-2.97
2019-01-19T00:11:00.137Z,-3.00
2019-01-19T00:12:08.207Z,-2.97
2019-01-19T00:13:16.271Z,-2.99
2019-01-19T00:14:24.309Z,-2.99
2019-01-19T00:15:32.354Z,-2.97
2019-01-19T00:16:40.423Z,-3.07
2019-01-19T00:17:48.465Z,-2.99
2019-01-19T00:18:56.506Z,-3.03
2019-01-19T00:20:04.556Z,-3.15
2019-01-19T00:21:12.628Z,-3.09
2019-01-19T00:22:20.675Z,-3.12
2019-01-19T00:23:28.706Z,-3.21
2019-01-19T00:24:36.762Z,-3.15
2019-01-19T00:25:44.808Z,-3.23
2019-01-19T00:26:52.938Z,-3.17
2019-01-19T00:28:00.905Z,-3.07
2019-01-19T00:29:08.965Z,-3.15
2019-01-19T00:30:17.023Z,-3.20
2019-01-19T00:31:25.067Z,-3.25
2019-01-19T00:32:33.129Z,-3.24
2019-01-19T00:33:41.235Z,-3.20
2019-01-19T00:34:49.228Z,-3.18
2019-01-19T00:35:57.267Z,-3.23
2019-01-19T00:37:05.303Z,-3.23
2019-01-19T00:38:13.360Z,-3.21
2019-01-19T00:39:21.413Z,-3.23
2019-01-19T00:40:29.484Z,-3.23
2019-01-19T00:41:37.510Z,-3.28
2019-01-19T00:42:45.590Z,-3.24
2019-01-19T00:43:53.653Z,-3.23
2019-01-19T00:45:01.684Z,-3.25
2019-01-19T00:46:09.720Z,-3.20
2019-01-19T00:47:17.784Z,-3.24
2019-01-19T00:48:25.826Z,-3.24
2019-01-19T00:49:33.873Z,-3.23
2019-01-19T00:50:41.914Z,-3.20
2019-01-19T00:51:49.966Z,-3.23
2019-01-19T00:52:58.028Z,-3.25
2019-01-19T00:54:06.088Z,-3.25
2019-01-19T00:55:14.143Z,-3.30
2019-01-19T00:56:22.186Z,-3.27
2019-01-19T00:57:30.236Z,-3.27
2019-01-19T00:58:38.300Z,-3.38
2019-01-19T00:59:46.342Z,-3.35
2019-01-19T01:00:54.379Z,-3.38
2019-01-19T01:02:02.442Z,-3.31
2019-01-19T01:03:10.483Z,-3.38
2019-01-19T01:04:18.522Z,-3.28
2019-01-19T01:05:26.607Z,-3.38
2019-01-19T01:06:34.633Z,-3.43
2019-01-19T01:07:42.681Z,-3.48
2019-01-19T01:08:50.723Z,-3.39
2019-01-19T01:09:58.800Z,-3.48
2019-01-19T01:11:06.834Z,-3.39
2019-01-19T01:12:14.883Z,-3.46
2019-01-19T01:13:22.924Z,-3.45
2019-01-19T01:14:31.047Z,-3.52
2019-01-19T01:15:39.043Z,-3.45
2019-01-19T01:16:47.077Z,-3.52
2019-01-19T01:17:55.114Z,-3.45
2019-01-19T01:19:03.203Z,-3.42
2019-01-19T01:20:11.282Z,-3.36
2019-01-19T01:21:19.298Z,-3.42
2019-01-19T01:22:27.329Z,-3.33
2019-01-19T01:23:35.383Z,-3.35
2019-01-19T01:24:43.436Z,-3.43
2019-01-19T01:25:51.508Z,-3.41
2019-01-19T01:26:59.556Z,-3.49
2019-01-19T01:28:07.587Z,-3.36
2019-01-19T01:29:15.655Z,-3.42
2019-01-19T01:30:23.684Z,-3.41
2019-01-19T01:31:31.730Z,-3.41
2019-01-19T01:32:39.782Z,-3.39
2019-01-19T01:33:47.842Z,-3.28
2019-01-19T01:34:55.892Z,-3.36
2019-01-19T01:36:03.934Z,-3.46
2019-01-19T01:37:12.002Z,-3.41
2019-01-19T01:38:20.047Z,-3.43
2019-01-19T01:39:28.071Z,-3.38
2019-01-19T01:40:36.135Z,-3.46
2019-01-19T01:41:44.193Z,-3.39
2019-01-19T01:42:52.262Z,-3.41
2019-01-19T01:44:00.302Z,-3.38
2019-01-19T01:45:08.341Z,-3.38
2019-01-19T01:46:16.398Z,-3.39
2019-01-19T01:47:24.445Z,-3.45
2019-01-19T01:48:32.506Z,-3.36
2019-01-19T01:49:40.529Z,-3.36
2019-01-19T01:50:48.586Z,-3.46
2019-01-19T01:51:56.646Z,-3.35
2019-01-19T01:53:04.687Z,-3.38
2019-01-19T01:54:12.751Z,-3.31
2019-01-19T01:55:20.782Z,-3.30
2019-01-19T01:56:28.838Z,-3.39
2019-01-19T01:57:36.896Z,-3.42
2019-01-19T01:58:44.939Z,-3.38
2019-01-19T01:59:53.007Z,-3.38
2019-01-19T02:01:01.025Z,-3.43
2019-01-19T02:02:09.101Z,-3.33
2019-01-19T02:03:17.149Z,-3.43
2019-01-19T02:04:25.218Z,-3.48
2019-01-19T02:05:40.017Z,-3.46
2019-01-19T02:06:41.276Z,-3.39
2019-01-19T02:07:49.390Z,-3.52
2019-01-19T02:08:57.386Z,-3.41
2019-01-19T02:10:05.449Z,-3.49
2019-01-19T02:11:13.489Z,-3.35
2019-01-19T02:12:21.553Z,-3.38
2019-01-19T02:13:29.624Z,-3.45
2019-01-19T02:14:37.666Z,-3.41
2019-01-19T02:15:45.704Z,-3.41
2019-01-19T02:16:53.750Z,-3.43
2019-01-19T02:18:01.808Z,-3.36
2019-01-19T02:19:09.858Z,-3.39
2019-01-19T02:20:17.902Z,-3.45
2019-01-19T02:21:25.951Z,-3.48
2019-01-19T02:22:33.999Z,-3.48
2019-01-19T02:23:42.055Z,-3.49
2019-01-19T02:24:50.104Z,-3.54
2019-01-19T02:25:58.159Z,-3.52
2019-01-19T02:27:06.179Z,-3.48
2019-01-19T02:28:14.248Z,-3.52
2019-01-19T02:29:22.301Z,-3.52
2019-01-19T02:30:30.356Z,-3.46
2019-01-19T02:31:38.402Z,-3.36
2019-01-19T02:32:46.447Z,-3.46
2019-01-19T02:33:54.526Z,-3.45
2019-01-19T02:35:02.557Z,-3.52
2019-01-19T02:36:10.585Z,-3.48
2019-01-19T02:37:18.627Z,-3.53
2019-01-19T02:38:26.701Z,-3.48
2019-01-19T02:39:34.770Z,-3.54
2019-01-19T02:40:42.835Z,-3.49
2019-01-19T02:41:50.851Z,-3.49
2019-01-19T02:42:58.896Z,-3.46
2019-01-19T02:44:06.964Z,-3.63
2019-01-19T02:45:14.999Z,-3.57
2019-01-19T02:46:23.086Z,-3.62
2019-01-19T02:47:31.126Z,-3.59
2019-01-19T02:48:39.159Z,-3.64
2019-01-19T02:49:47.596Z,-3.60
2019-01-19T02:50:55.255Z,-3.57
2019-01-19T02:52:03.312Z,-3.59
2019-01-19T02:53:11.420Z,-3.59
2019-01-19T02:54:19.413Z,-3.59
2019-01-19T02:55:27.462Z,-3.63
2019-01-19T02:56:35.527Z,-3.64
2019-01-19T02:57:43.585Z,-3.63
2019-01-19T02:58:51.612Z,-3.75
2019-01-19T02:59:59.684Z,-3.62
2019-01-19T03:01:07.722Z,-3.72
2019-01-19T03:02:15.754Z,-3.72
2019-01-19T03:03:23.807Z,-3.75
2019-01-19T03:04:31.840Z,-3.75
2019-01-19T03:05:39.908Z,-3.81
2019-01-19T03:06:47.987Z,-3.91
2019-01-19T03:07:55.997Z,-3.90
2019-01-19T03:09:04.060Z,-3.82
2019-01-19T03:10:12.124Z,-3.83
2019-01-19T03:11:20.172Z,-3.81
2019-01-19T03:12:28.215Z,-3.83
2019-01-19T03:13:36.272Z,-3.63
2019-01-19T03:14:44.309Z,-3.71
2019-01-19T03:15:52.357Z,-3.69
2019-01-19T03:17:00.425Z,-3.81
2019-01-19T03:18:08.475Z,-3.75
2019-01-19T03:19:16.518Z,-3.64
2019-01-19T03:20:24.565Z,-3.64
2019-01-19T03:21:32.620Z,-3.76
2019-01-19T03:22:40.656Z,-3.75
2019-01-19T03:23:48.714Z,-3.81
2019-01-19T03:24:56.753Z,-3.82
2019-01-19T03:26:04.813Z,-3.86
2019-01-19T03:27:12.891Z,-3.86
2019-01-19T03:28:20.897Z,-3.93
2019-01-19T03:29:28.969Z,-3.94
2019-01-19T03:30:37.018Z,-3.93
2019-01-19T03:31:45.076Z,-3.97
2019-01-19T03:32:53.154Z,-4.01
2019-01-19T03:34:01.179Z,-4.06
2019-01-19T03:35:09.211Z,-4.10
2019-01-19T03:36:17.289Z,-4.12
2019-01-19T03:37:25.324Z,-4.01
2019-01-19T03:38:33.387Z,-4.21
2019-01-19T03:39:41.411Z,-4.21
2019-01-19T03:40:49.456Z,-4.25
2019-01-19T03:41:57.537Z,-4.32
2019-01-19T03:43:05.580Z,-4.38
2019-01-19T03:44:13.617Z,-4.50
2019-01-19T03:45:21.664Z,-4.54
2019-01-19T03:46:29.730Z,-4.56
2019-01-19T03:47:37.785Z,-4.58
2019-01-19T03:48:45.828Z,-4.68
2019-01-19T03:49:53.856Z,-4.72
2019-01-19T03:51:04.783Z,-4.79
2019-01-19T03:52:09.968Z,-4.86
2019-01-19T03:53:18.014Z,-4.83
2019-01-19T03:54:26.077Z,-4.89
2019-01-19T03:55:34.140Z,-4.75
2019-01-19T03:56:42.159Z,-4.79
2019-01-19T03:57:50.196Z,-4.89
2019-01-19T03:58:58.237Z,-4.87
2019-01-19T04:00:06.303Z,-4.87
2019-01-19T04:01:14.384Z,-4.90
2019-01-19T04:02:22.422Z,-4.86
2019-01-19T04:03:30.462Z,-4.85
2019-01-19T04:04:38.503Z,-4.77
2019-01-19T04:05:46.558Z,-4.87
2019-01-19T04:06:54.618Z,-4.89
2019-01-19T04:08:02.639Z,-4.87
2019-01-19T04:09:10.679Z,-4.90
2019-01-19T04:10:18.768Z,-4.96
2019-01-19T04:11:26.841Z,-4.95
2019-01-19T04:12:34.858Z,-4.99
2019-01-19T04:13:42.897Z,-4.92
2019-01-19T04:14:50.929Z,-5.04
2019-01-19T04:15:59.019Z,-4.97
2019-01-19T04:17:07.066Z,-5.06
2019-01-19T04:18:15.123Z,-5.03
2019-01-19T04:19:23.168Z,-4.74
2019-01-19T04:20:31.203Z,-4.86
2019-01-19T04:21:39.278Z,-4.65
2019-01-19T04:22:47.332Z,-4.56
2019-01-19T04:23:55.372Z,-4.63
2019-01-19T04:25:03.419Z,-4.56
2019-01-19T04:26:11.483Z,-4.58
2019-01-19T04:27:19.517Z,-4.56
2019-01-19T04:28:27.584Z,-4.49
2019-01-19T04:29:35.587Z,-4.38
2019-01-19T04:30:44.089Z,-4.36
2019-01-19T04:31:51.700Z,-4.36
2019-01-19T04:32:59.762Z,-4.35
2019-01-19T04:34:07.798Z,-4.35
2019-01-19T04:35:15.883Z,-4.20
2019-01-19T04:36:23.887Z,-4.24
2019-01-19T04:37:31.962Z,-4.20
2019-01-19T04:38:40.008Z,-4.20
2019-01-19T04:39:48.054Z,-4.12
2019-01-19T04:40:56.085Z,-4.24
2019-01-19T04:42:04.150Z,-4.15
2019-01-19T04:43:12.229Z,-4.22
2019-01-19T04:44:20.269Z,-4.14
2019-01-19T04:45:28.317Z,-4.17
2019-01-19T04:46:36.345Z,-4.14
2019-01-19T04:47:44.400Z,-4.11
2019-01-19T04:48:52.463Z,-4.07
2019-01-19T04:50:00.495Z,-4.07
2019-01-19T04:51:08.565Z,-4.01
2019-01-19T04:52:16.659Z,-3.96
2019-01-19T04:53:24.669Z,-4.06
2019-01-19T04:54:32.707Z,-3.97
2019-01-19T04:55:40.742Z,-3.96
2019-01-19T04:56:48.803Z,-3.96
2019-01-19T04:57:56.843Z,-3.94
2019-01-19T04:59:04.914Z,-3.91
2019-01-19T05:00:12.961Z,-3.90
2019-01-19T05:01:21.018Z,-3.90
2019-01-19T05:02:29.097Z,-3.91
2019-01-19T05:03:37.114Z,-3.91
2019-01-19T05:04:45.162Z,-3.90
2019-01-19T05:05:53.221Z,-3.91
2019-01-19T05:07:01.265Z,-3.86
2019-01-19T05:08:09.299Z,-3.82
2019-01-19T05:09:17.349Z,-3.82
2019-01-19T05:10:25.430Z,-3.85
2019-01-19T05:11:33.445Z,-3.83
2019-01-19T05:12:41.487Z,-3.82
2019-01-19T05:13:49.544Z,-3.81
2019-01-19T05:14:57.590Z,-3.85
2019-01-19T05:16:05.667Z,-3.81
2019-01-19T05:17:13.723Z,-3.81
2019-01-19T05:18:21.749Z,-3.81
2019-01-19T05:19:29.791Z,-3.66
2019-01-19T05:20:37.871Z,-3.75
2019-01-19T05:21:45.915Z,-3.64
2019-01-19T05:22:53.967Z,-3.62
2019-01-19T05:24:02.010Z,-3.78
2019-01-19T05:25:10.082Z,-3.81
2019-01-19T05:26:18.107Z,-3.75
2019-01-19T05:27:26.148Z,-3.76
2019-01-19T05:28:34.204Z,-3.69
2019-01-19T05:29:42.265Z,-3.63
2019-01-19T05:30:50.293Z,-3.62
2019-01-19T05:31:58.371Z,-3.59
2019-01-19T05:33:06.418Z,-3.64
2019-01-19T05:34:14.474Z,-3.59
2019-01-19T05:35:22.504Z,-3.59
2019-01-19T05:36:37.989Z,-3.59
2019-01-19T05:37:38.593Z,-3.62
2019-01-19T05:38:46.673Z,-3.56
2019-01-19T05:39:54.707Z,-3.57
2019-01-19T05:41:02.764Z,-3.53
2019-01-19T05:42:10.799Z,-3.59
2019-01-19T05:43:18.913Z,-3.63
2019-01-19T05:44:26.925Z,-3.60
2019-01-19T05:45:34.965Z,-3.62
2019-01-19T05:46:43.022Z,-3.56
2019-01-19T05:47:51.066Z,-3.64
2019-01-19T05:48:59.128Z,-3.59
2019-01-19T05:50:07.171Z,-3.66
2019-01-19T05:51:15.209Z,-3.59
2019-01-19T05:52:23.275Z,-3.66
2019-01-19T05:53:31.321Z,-3.56
2019-01-19T05:54:39.385Z,-3.62
2019-01-19T05:55:47.424Z,-3.64
2019-01-19T05:56:55.476Z,-3.56
2019-01-19T05:58:03.537Z,-3.59
2019-01-19T05:59:12.871Z,-3.63
2019-01-19T06:00:19.624Z,-3.57
2019-01-19T06:01:28.226Z,-3.59
2019-01-19T06:02:35.738Z,-3.62
2019-01-19T06:03:43.782Z,-3.59
2019-01-19T06:04:52.130Z,-3.62
2019-01-19T06:05:59.884Z,-3.56
2019-01-19T06:07:07.931Z,-3.63
2019-01-19T06:08:15.967Z,-3.60
2019-01-19T06:09:24.032Z,-3.59
2019-01-19T06:10:32.497Z,-3.64
2019-01-19T06:11:40.111Z,-3.62
2019-01-19T06:12:48.203Z,-3.56
2019-01-19T06:13:56.235Z,-3.59
2019-01-19T06:15:04.285Z,-3.60
2019-01-19T06:16:12.349Z,-3.57
2019-01-19T06:17:20.392Z,-3.63
2019-01-19T06:18:28.427Z,-3.66
2019-01-19T06:19:36.626Z,-3.57
2019-01-19T06:20:44.540Z,-3.63
2019-01-19T06:21:52.602Z,-3.59
2019-01-19T06:23:01.299Z,-3.59
2019-01-19T06:24:08.693Z,-3.62
2019-01-19T06:25:16.743Z,-3.56
2019-01-19T06:26:24.780Z,-3.57
2019-01-19T06:27:32.826Z,-3.75
2019-01-19T06:28:40.880Z,-3.59
2019-01-19T06:29:48.935Z,-3.66
2019-01-19T06:30:57.003Z,-3.62
2019-01-19T06:32:05.044Z,-3.57
2019-01-19T06:33:13.076Z,-3.64
2019-01-19T06:34:21.136Z,-3.62
2019-01-19T06:35:29.200Z,-3.62
2019-01-19T06:36:37.258Z,-3.54
2019-01-19T06:37:45.302Z,-3.52
2019-01-19T06:38:53.358Z,-3.48
2019-01-19T06:40:01.377Z,-3.59
2019-01-19T06:41:10.075Z,-3.64
2019-01-19T06:42:17.500Z,-3.66
2019-01-19T06:43:25.530Z,-3.62
2019-01-19T06:44:33.638Z,-3.64
2019-01-19T06:45:41.618Z,-3.53
2019-01-19T06:46:49.763Z,-3.57
2019-01-19T06:47:57.723Z,-3.49
2019-01-19T06:49:05.836Z,-3.52
2019-01-19T06:50:13.851Z,-3.45
2019-01-19T06:51:21.903Z,-3.41
2019-01-19T06:52:29.932Z,-3.48
2019-01-19T06:53:38.020Z,-3.41
2019-01-19T06:54:46.042Z,-3.49
2019-01-19T06:55:54.110Z,-3.41
2019-01-19T06:57:02.154Z,-3.38
2019-01-19T06:58:10.184Z,-3.36
2019-01-19T06:59:18.243Z,-3.33
2019-01-19T07:00:26.355Z,-3.38
2019-01-19T07:01:34.353Z,-3.39
2019-01-19T07:02:43.182Z,-3.42
2019-01-19T07:03:50.468Z,-3.43
2019-01-19T07:04:58.508Z,-3.42
2019-01-19T07:06:06.580Z,-3.36
2019-01-19T07:07:14.631Z,-3.39
2019-01-19T07:08:22.669Z,-3.42
2019-01-19T07:09:30.671Z,-3.42
2019-01-19T07:10:38.736Z,-3.42
2019-01-19T07:11:46.837Z,-3.42
2019-01-19T07:12:54.864Z,-3.36
2019-01-19T07:14:02.885Z,-3.43
2019-01-19T07:15:10.982Z,-3.39
2019-01-19T07:16:19.010Z,-3.43
2019-01-19T07:17:27.076Z,-3.45
2019-01-19T07:18:35.111Z,-3.33
2019-01-19T07:19:43.210Z,-3.36
2019-01-19T07:20:51.218Z,-3.35
2019-01-19T07:21:59.277Z,-3.33
2019-01-19T07:23:07.326Z,-3.36
2019-01-19T07:24:15.344Z,-3.35
2019-01-19T07:25:23.428Z,-3.35
2019-01-19T07:26:31.460Z,-3.35
2019-01-19T07:27:39.513Z,-3.36
2019-01-19T07:28:47.584Z,-3.41
2019-01-19T07:29:55.604Z,-3.38
2019-01-19T07:31:03.670Z,-3.33
2019-01-19T07:32:11.701Z,-3.36
2019-01-19T07:33:19.779Z,-3.36
2019-01-19T07:34:27.827Z,-3.42
2019-01-19T07:35:35.865Z,-3.39
2019-01-19T07:36:43.939Z,-3.30
2019-01-19T07:37:51.992Z,-3.39
2019-01-19T07:39:00.018Z,-3.38
2019-01-19T07:40:08.077Z,-3.42
2019-01-19T07:41:16.125Z,-3.39
2019-01-19T07:42:24.195Z,-3.42
2019-01-19T07:43:32.266Z,-3.30
2019-01-19T07:44:40.278Z,-3.38
2019-01-19T07:45:48.494Z,-3.30
2019-01-19T07:46:56.411Z,-3.30
2019-01-19T07:48:04.419Z,-3.33
2019-01-19T07:49:12.494Z,-3.36
2019-01-19T07:50:20.557Z,-3.39
2019-01-19T07:51:28.599Z,-3.27
2019-01-19T07:52:36.662Z,-3.23
2019-01-19T07:53:44.681Z,-3.35
2019-01-19T07:54:53.157Z,-3.25
2019-01-19T07:56:00.792Z,-3.18
2019-01-19T07:57:08.856Z,-3.07
2019-01-19T07:58:16.911Z,-3.21
2019-01-19T07:59:24.984Z,-3.14
2019-01-19T08:00:33.067Z,-3.20
2019-01-19T08:01:41.051Z,-3.28
2019-01-19T08:02:49.113Z,-3.21
2019-01-19T08:03:57.244Z,-3.20
2019-01-19T08:05:05.224Z,-3.21
2019-01-19T08:06:13.243Z,-3.12
2019-01-19T08:07:21.332Z,-3.00
2019-01-19T08:08:29.386Z,-2.92
2019-01-19T08:09:37.412Z,-2.96
2019-01-19T08:10:45.645Z,-2.91
2019-01-19T08:11:53.529Z,-2.84
2019-01-19T08:13:01.606Z,-2.91
2019-01-19T08:14:09.640Z,-2.79
2019-01-19T08:15:17.900Z,-2.81
2019-01-19T08:16:25.827Z,-2.85
2019-01-19T08:17:33.780Z,-2.68
2019-01-19T08:18:41.844Z,-2.71
2019-01-19T08:19:50.551Z,-2.58
2019-01-19T08:20:58.066Z,-2.63
2019-01-19T08:22:06.065Z,-2.56
2019-01-19T08:23:14.047Z,-2.58
2019-01-19T08:24:22.196Z,-2.64
2019-01-19T08:25:30.656Z,-2.66
2019-01-19T08:26:38.185Z,-2.63
2019-01-19T08:27:46.248Z,-2.64
2019-01-19T08:28:54.307Z,-2.60
2019-01-19T08:30:04.874Z,-2.61
2019-01-19T08:31:10.385Z,-2.66
2019-01-19T08:32:18.685Z,-2.63
2019-01-19T08:33:26.783Z,-2.58
2019-01-19T08:34:35.908Z,-2.53
2019-01-19T08:35:42.603Z,-2.61
2019-01-19T08:36:50.655Z,-2.64
2019-01-19T08:37:59.156Z,-2.58
2019-01-19T08:39:06.743Z,-2.66
2019-01-19T08:40:14.805Z,-2.52
2019-01-19T08:41:22.845Z,-2.50
2019-01-19T08:42:31.156Z,-2.58
2019-01-19T08:43:38.968Z,-2.45
2019-01-19T08:44:46.998Z,-2.40
2019-01-19T08:45:55.545Z,-2.45
2019-01-19T08:47:03.119Z,-2.35
2019-01-19T08:48:11.163Z,-2.49
2019-01-19T08:49:19.232Z,-2.40
2019-01-19T08:50:27.262Z,-2.39
2019-01-19T08:51:35.348Z,-2.50
2019-01-19T08:52:43.808Z,-2.40
2019-01-19T08:53:51.866Z,-2.43
2019-01-19T08:54:59.617Z,-2.43
2019-01-19T08:56:07.569Z,-2.30
2019-01-19T08:57:15.588Z,-2.35
2019-01-19T08:58:23.709Z,-2.35
2019-01-19T08:59:32.226Z,-2.20
2019-01-19T09:00:39.749Z,-2.29
2019-01-19T09:01:47.866Z,-2.24
2019-01-19T09:02:55.867Z,-2.15
2019-01-19T09:04:04.097Z,-2.15
2019-01-19T09:05:12.079Z,-2.18
2019-01-19T09:06:20.082Z,-2.23
2019-01-19T09:07:33.595Z,-2.24
2019-01-19T09:08:36.112Z,-2.32
2019-01-19T09:09:44.282Z,-2.26
2019-01-19T09:10:52.202Z,-2.29
2019-01-19T09:12:00.265Z,-2.16
2019-01-19T09:13:09.439Z,-2.18
2019-01-19T09:14:16.385Z,-2.21
2019-01-19T09:15:24.421Z,-2.13
2019-01-19T09:16:39.441Z,-2.18
2019-01-19T09:17:40.518Z,-2.09
2019-01-19T09:18:48.736Z,-2.12
2019-01-19T09:19:56.608Z,-1.88
2019-01-19T09:21:04.705Z,-1.94
2019-01-19T09:22:12.726Z,-1.92
2019-01-19T09:23:20.800Z,-2.02
2019-01-19T09:24:28.854Z,-2.10
2019-01-19T09:25:36.902Z,-1.94
2019-01-19T09:26:44.934Z,-1.94
2019-01-19T09:27:52.986Z,-1.92
2019-01-19T09:29:01.041Z,-1.94
2019-01-19T09:30:09.118Z,-1.95
2019-01-19T09:31:17.164Z,-1.95
2019-01-19T09:32:25.200Z,-1.79
2019-01-19T09:33:33.268Z,-1.74
2019-01-19T09:34:41.307Z,-1.70
2019-01-19T09:35:49.355Z,-1.67
2019-01-19T09:36:57.423Z,-1.66
2019-01-19T09:38:05.457Z,-1.62
2019-01-19T09:39:13.504Z,-1.54
2019-01-19T09:40:21.578Z,-1.51
2019-01-19T09:41:29.620Z,-1.46
2019-01-19T09:42:37.688Z,-1.46
2019-01-19T09:43:45.734Z,-1.34
2019-01-19T09:44:53.766Z,-1.28
2019-01-19T09:46:01.834Z,-1.25
2019-01-19T09:47:10.171Z,-1.19
2019-01-19T09:48:17.949Z,-1.09
2019-01-19T09:49:26.056Z,-1.07
2019-01-19T09:50:34.061Z,-0.98
2019-01-19T09:51:42.099Z,-1.02
2019-01-19T09:52:50.157Z,-0.80
2019-01-19T09:53:58.209Z,-0.67
2019-01-19T09:55:06.244Z,-0.61
2019-01-19T09:56:14.299Z,-0.60
2019-01-19T09:57:22.368Z,-0.57
2019-01-19T09:58:30.416Z,-0.47
2019-01-19T09:59:38.472Z,-0.54
2019-01-19T10:00:46.504Z,-0.52
2019-01-19T10:01:54.582Z,-0.54
2019-01-19T10:03:02.622Z,-0.61
2019-01-19T10:04:10.745Z,-0.67
2019-01-19T10:05:18.726Z,-1.01
2019-01-19T10:06:26.789Z,-1.35
2019-01-19T10:07:34.881Z,-1.69
2019-01-19T10:08:42.903Z,-1.64
2019-01-19T10:09:50.938Z,-1.51
2019-01-19T10:10:59.000Z,-1.45
2019-01-19T10:12:07.050Z,-1.41
2019-01-19T10:13:15.125Z,-1.33
2019-01-19T10:14:23.168Z,-1.22
2019-01-19T10:15:31.222Z,-1.19
2019-01-19T10:16:39.271Z,-1.09
2019-01-19T10:17:47.315Z,-1.04
2019-01-19T10:18:55.388Z,-0.97
2019-01-19T10:20:03.432Z,-0.94
2019-01-19T10:21:11.462Z,-0.95
2019-01-19T10:22:19.550Z,-0.95
2019-01-19T10:23:27.608Z,-0.91
2019-01-19T10:24:35.631Z,-0.91
2019-01-19T10:25:43.772Z,-0.72
2019-01-19T10:26:51.745Z,-0.72
2019-01-19T10:27:59.801Z,-0.75
2019-01-19T10:29:07.882Z,-0.65
2019-01-19T10:30:15.896Z,-0.69
2019-01-19T10:31:23.974Z,-0.86
2019-01-19T10:32:32.020Z,-0.95
2019-01-19T10:33:40.067Z,-0.85
2019-01-19T10:34:48.133Z,-0.89
2019-01-19T10:35:56.173Z,-0.89
2019-01-19T10:37:04.292Z,-0.85
2019-01-19T10:38:12.290Z,-0.75
2019-01-19T10:39:20.342Z,-0.64
2019-01-19T10:40:28.377Z,-0.64
2019-01-19T10:41:40.788Z,-0.49
2019-01-19T10:42:44.508Z,-0.58
2019-01-19T10:43:52.574Z,-0.61
2019-01-19T10:45:00.757Z,-0.44
2019-01-19T10:46:08.685Z,-0.54
2019-01-19T10:47:16.732Z,-0.37
2019-01-19T10:48:24.782Z,-0.33
2019-01-19T10:49:33.497Z,-0.21
2019-01-19T10:50:40.901Z,-0.05
2019-01-19T10:51:48.943Z,-0.05
2019-01-19T10:52:57.024Z,-0.15
2019-01-19T10:54:05.036Z,-0.26
2019-01-19T10:55:13.109Z,-0.40
2019-01-19T10:56:21.154Z,-0.31
2019-01-19T10:57:29.199Z,-0.31
2019-01-19T10:58:37.286Z,-0.16
2019-01-19T10:59:45.305Z,-0.08
2019-01-19T11:00:53.365Z,-0.08
2019-01-19T11:02:02.549Z,-0.16
2019-01-19T11:03:09.473Z,0.03
2019-01-19T11:04:17.547Z,-0.01
2019-01-19T11:05:25.592Z,0.11
2019-01-19T11:06:33.633Z,0.13
2019-01-19T11:07:41.676Z,0.18
2019-01-19T11:08:49.750Z,0.23
2019-01-19T11:09:57.816Z,0.20
2019-01-19T11:11:05.862Z,0.23
2019-01-19T11:12:13.932Z,0.11
2019-01-19T11:13:21.969Z,0.18
2019-01-19T11:14:30.026Z,0.18
2019-01-19T11:15:38.081Z,0.24
2019-01-19T11:16:46.146Z,0.28
2019-01-19T11:17:54.171Z,0.39
2019-01-19T11:19:02.257Z,0.44
2019-01-19T11:20:10.305Z,0.36
2019-01-19T11:21:18.353Z,0.41
2019-01-19T11:22:26.418Z,0.42
2019-01-19T11:23:39.704Z,0.35
2019-01-19T11:24:42.516Z,0.36
2019-01-19T11:25:50.608Z,0.53
2019-01-19T11:26:58.624Z,0.57
2019-01-19T11:28:06.672Z,0.60
2019-01-19T11:29:14.732Z,0.72
2019-01-19T11:30:22.843Z,0.83
2019-01-19T11:31:30.864Z,0.88
2019-01-19T11:32:44.364Z,0.90
2019-01-19T11:33:46.956Z,0.94
2019-01-19T11:34:55.016Z,0.91
2019-01-19T11:36:03.039Z,0.87
2019-01-19T11:37:11.140Z,0.91
2019-01-19T11:38:20.419Z,1.00
2019-01-19T11:39:27.250Z,1.04
2019-01-19T11:40:35.287Z,0.90
2019-01-19T11:41:43.591Z,1.04
2019-01-19T11:42:51.808Z,0.97
2019-01-19T11:43:59.961Z,1.00
2019-01-19T11:45:08.182Z,0.93
2019-01-19T11:46:15.927Z,0.96
2019-01-19T11:47:23.645Z,1.06
2019-01-19T11:48:31.658Z,0.94
2019-01-19T11:49:39.756Z,0.91
2019-01-19T11:50:48.202Z,0.94
2019-01-19T11:51:55.836Z,0.87
2019-01-19T11:53:03.901Z,0.94
2019-01-19T11:54:11.933Z,0.90
2019-01-19T11:55:19.999Z,0.80
2019-01-19T11:56:28.041Z,0.76
2019-01-19T11:57:36.114Z,0.84
2019-01-19T11:58:44.185Z,0.68
2019-01-19T11:59:52.233Z,0.61
2019-01-19T12:01:00.295Z,0.47
2019-01-19T12:02:08.344Z,0.46
2019-01-19T12:03:16.390Z,0.61
2019-01-19T12:04:24.751Z,0.55
2019-01-19T12:05:32.500Z,0.68
2019-01-19T12:06:40.534Z,0.72
2019-01-19T12:07:48.612Z,0.68
2019-01-19T12:08:56.657Z,0.68
2019-01-19T12:10:04.726Z,0.68
2019-01-19T12:11:12.774Z,0.73
2019-01-19T12:12:20.827Z,0.73
2019-01-19T12:13:28.871Z,0.80
2019-01-19T12:14:36.941Z,0.88
2019-01-19T12:15:44.984Z,0.94
2019-01-19T12:16:53.054Z,0.93
2019-01-19T12:18:01.079Z,0.96
2019-01-19T12:19:09.154Z,0.90
2019-01-19T12:20:17.191Z,0.88
2019-01-19T12:21:25.583Z,0.97
2019-01-19T12:22:33.313Z,1.05
2019-01-19T12:23:41.367Z,1.06
2019-01-19T12:24:49.418Z,0.94
2019-01-19T12:25:57.472Z,1.06
2019-01-19T12:27:05.537Z,1.12
2019-01-19T12:28:13.682Z,1.08
2019-01-19T12:29:21.657Z,1.12
2019-01-19T12:30:29.727Z,1.11
2019-01-19T12:31:37.751Z,1.04
2019-01-19T12:32:45.786Z,1.06
2019-01-19T12:33:53.857Z,1.18
2019-01-19T12:35:02.719Z,0.93
2019-01-19T12:36:09.943Z,1.06
2019-01-19T12:37:18.022Z,1.09
2019-01-19T12:38:26.832Z,0.98
2019-01-19T12:39:34.142Z,1.05
2019-01-19T12:40:42.198Z,1.05
2019-01-19T12:41:50.232Z,1.08
2019-01-19T12:42:58.321Z,1.16
2019-01-19T12:44:06.350Z,1.14
2019-01-19T12:45:14.414Z,1.22
2019-01-19T12:46:22.468Z,1.18
2019-01-19T12:47:30.536Z,1.12
2019-01-19T12:48:38.573Z,1.29
2019-01-19T12:49:46.630Z,1.14
2019-01-19T12:50:54.697Z,1.24
2019-01-19T12:52:02.771Z,1.32
2019-01-19T12:53:10.787Z,1.22
2019-01-19T12:54:18.854Z,1.24
2019-01-19T12:55:26.915Z,1.26
2019-01-19T12:56:34.960Z,1.32
2019-01-19T12:57:43.016Z,1.24
2019-01-19T12:58:51.063Z,1.37
2019-01-19T12:59:59.268Z,1.37
2019-01-19T13:01:07.203Z,1.41
2019-01-19T13:02:15.231Z,1.34
2019-01-19T13:03:23.955Z,1.37
2019-01-19T13:04:31.413Z,1.36
2019-01-19T13:05:39.428Z,1.37
2019-01-19T13:06:47.445Z,1.42
2019-01-19T13:07:55.645Z,1.37
2019-01-19T13:09:03.719Z,1.37
2019-01-19T13:10:11.627Z,1.42
2019-01-19T13:11:19.685Z,1.50
2019-01-19T13:12:27.740Z,1.24
2019-01-19T13:13:35.796Z,1.29
2019-01-19T13:14:43.873Z,1.23
2019-01-19T13:15:51.899Z,1.29
2019-01-19T13:16:59.959Z,1.37
2019-01-19T13:18:08.028Z,1.30
2019-01-19T13:19:16.072Z,1.36
2019-01-19T13:20:24.458Z,1.34
2019-01-19T13:21:32.178Z,1.37
2019-01-19T13:22:40.238Z,1.42
2019-01-19T13:23:48.288Z,1.29
2019-01-19T13:24:56.365Z,1.41
2019-01-19T13:26:04.393Z,1.42
2019-01-19T13:27:12.508Z,1.36
2019-01-19T13:28:20.511Z,1.37
2019-01-19T13:29:28.567Z,1.37
2019-01-19T13:30:36.651Z,1.36
2019-01-19T13:31:44.689Z,1.42
2019-01-19T13:32:52.739Z,1.33
2019-01-19T13:34:00.794Z,1.18
2019-01-19T13:35:08.862Z,1.16
2019-01-19T13:36:16.900Z,1.14
2019-01-19T13:37:24.952Z,1.16
2019-01-19T13:38:33.042Z,1.09
2019-01-19T13:39:41.030Z,1.22
2019-01-19T13:40:49.122Z,1.08
2019-01-19T13:41:57.182Z,1.20
2019-01-19T13:43:05.218Z,1.22
2019-01-19T13:44:13.296Z,1.24
2019-01-19T13:45:21.388Z,1.30
2019-01-19T13:46:29.413Z,1.23
2019-01-19T13:47:37.470Z,1.18
2019-01-19T13:48:45.499Z,1.12
2019-01-19T13:49:53.538Z,1.08
2019-01-19T13:51:01.598Z,1.12
2019-01-19T13:52:09.653Z,1.12
2019-01-19T13:53:17.725Z,1.11
2019-01-19T13:54:25.769Z,1.14
2019-01-19T13:55:33.913Z,1.08
2019-01-19T13:56:41.890Z,0.98
2019-01-19T13:57:49.946Z,1.04
2019-01-19T13:58:58.003Z,0.98
2019-01-19T14:00:06.083Z,1.02
2019-01-19T14:01:14.166Z,1.05
2019-01-19T14:02:22.169Z,1.08
2019-01-19T14:03:30.206Z,1.02
2019-01-19T14:04:38.297Z,0.97
2019-01-19T14:05:46.333Z,1.02
2019-01-19T14:06:54.387Z,1.05
2019-01-19T14:08:02.438Z,1.02
2019-01-19T14:09:10.483Z,1.02
2019-01-19T14:10:18.549Z,1.00
2019-01-19T14:11:26.624Z,0.88
2019-01-19T14:12:34.649Z,0.86
2019-01-19T14:13:42.711Z,0.93
2019-01-19T14:14:50.767Z,0.87
2019-01-19T14:15:58.812Z,0.91
2019-01-19T14:17:06.867Z,0.88
2019-01-19T14:18:14.932Z,0.91
2019-01-19T14:19:22.985Z,0.91
2019-01-19T14:20:31.018Z,0.87
2019-01-19T14:21:39.078Z,0.84
2019-01-19T14:22:47.177Z,0.90
2019-01-19T14:23:55.591Z,0.76
2019-01-19T14:25:03.262Z,0.83
2019-01-19T14:26:11.304Z,0.84
2019-01-19T14:27:19.371Z,0.66
2019-01-19T14:28:27.416Z,0.65
2019-01-19T14:29:35.497Z,0.75
2019-01-19T14:30:43.508Z,0.69
2019-01-19T14:31:51.594Z,0.69
2019-01-19T14:32:59.644Z,0.75
2019-01-19T14:34:07.686Z,0.65
2019-01-19T14:35:15.847Z,0.69
2019-01-19T14:36:23.801Z,0.68
2019-01-19T14:37:31.842Z,0.65
2019-01-19T14:38:39.887Z,0.57
2019-01-19T14:39:47.951Z,0.66
2019-01-19T14:40:56.019Z,0.53
2019-01-19T14:42:04.092Z,0.50
2019-01-19T14:43:12.114Z,0.42